Time;durP1;ratioP1;P1;durP2;ratioP2;P2;SDS_P1;SDS_P2;PMS_P1;PMS_P2;Temp;Humidity;BMP_temperature;BMP_pressure;BME280_temperature;BME280_humidity;BME280_pressure;Samples;Min_cycle;Max_cycle;Signal;HPM_P1;HPM_P2
2022/06/18 04:02:36;;;;;;;1.20;0.80;;;17.60;95.80;;;;;;4990014;28;20496;-78
2022/06/18 04:05:02;;;;;;;2.00;0.87;;;18.10;94.10;;;;;;4994532;28;20413;-78
2022/06/18 04:07:27;;;;;;;3.47;1.20;;;18.30;93.60;;;;;;4993871;28;20192;-78
2022/06/18 04:09:54;;;;;;;2.83;1.30;;;18.50;92.30;;;;;;4994442;28;20228;-78
2022/06/18 04:12:20;;;;;;;1.60;1.27;;;18.70;92.10;;;;;;4994935;28;20567;-80
2022/06/18 04:14:46;;;;;;;1.43;1.03;;;18.60;91.60;;;;;;4996442;28;20397;-80
2022/06/18 04:17:15;;;;;;;2.30;1.00;;;18.80;88.20;;;;;;4994877;28;20918;-80
2022/06/18 04:19:41;;;;;;;2.90;1.30;;;18.80;88.50;;;;;;4995518;28;20217;-80
2022/06/18 06:52:18;;;;;;;2.20;0.90;;;34.90;53.40;;;;;;5145154;23;20232;-77
2022/06/18 06:54:43;;;;;;;1.15;0.90;;;35.00;53.10;;;;;;4978548;28;20180;-78
2022/06/18 06:57:21;;;;;;;3.22;1.23;;;35.00;52.80;;;;;;4979106;28;20173;-77
2022/06/18 06:59:46;;;;;;;2.33;0.88;;;34.10;53.10;;;;;;4995127;28;20189;-79
2022/06/18 07:02:16;;;;;;;1.50;1.00;;;34.20;53.00;;;;;;4976868;28;20254;-74
2022/06/18 07:04:42;;;;;;;3.17;1.00;;;33.90;53.20;;;;;;4987411;28;20224;-74
2022/06/18 07:07:11;;;;;;;1.98;0.90;;;33.40;55.00;;;;;;4995505;28;20244;-76
2022/06/18 07:09:37;;;;;;;3.92;1.00;;;33.90;54.60;;;;;;4995476;28;20637;-77
2022/06/18 07:12:03;;;;;;;2.78;0.95;;;35.20;53.70;;;;;;4997076;28;20315;-81
2022/06/18 07:14:28;;;;;;;1.58;0.90;;;35.50;50.80;;;;;;4996753;28;20181;-79
2022/06/18 07:16:54;;;;;;;1.45;1.00;;;34.90;51.30;;;;;;4978511;28;20177;-79
2022/06/18 07:19:20;;;;;;;3.28;0.90;;;34.10;53.80;;;;;;4994870;28;20220;-78
2022/06/18 07:21:46;;;;;;;5.13;1.05;;;34.30;53.40;;;;;;4990190;28;20283;-79
2022/06/18 07:24:11;;;;;;;2.67;0.90;;;34.40;53.10;;;;;;4979598;28;20219;-81
2022/06/18 07:26:37;;;;;;;2.22;0.90;;;34.70;53.60;;;;;;4997175;28;20647;-79
2022/06/18 07:29:02;;;;;;;1.65;0.88;;;34.90;53.50;;;;;;4996728;28;20181;-80
2022/06/18 07:31:31;;;;;;;2.35;1.13;;;35.00;51.70;;;;;;4995535;28;20592;-80
2022/06/18 07:34:01;;;;;;;1.20;0.77;;;35.20;52.50;;;;;;4996614;28;20177;-79
2022/06/18 07:36:26;;;;;;;5.57;1.30;;;35.20;52.20;;;;;;4997027;28;20173;-81
2022/06/18 07:38:52;;;;;;;1.17;0.90;;;35.80;52.00;;;;;;4979592;28;20201;-81
2022/06/18 07:41:20;;;;;;;3.17;1.00;;;36.20;50.80;;;;;;4996519;28;20212;-81
2022/06/18 07:43:51;;;;;;;1.30;1.08;;;35.20;50.10;;;;;;4976280;28;20191;-80
2022/06/18 07:46:17;;;;;;;1.90;1.10;;;35.00;53.00;;;;;;4977038;28;20718;-79
2022/06/18 07:48:43;;;;;;;2.45;1.00;;;35.50;53.40;;;;;;4994272;28;20197;-79
2022/06/18 07:51:10;;;;;;;2.72;1.08;;;35.30;53.20;;;;;;4977142;28;20248;-79
2022/06/18 07:53:36;;;;;;;4.07;1.40;;;36.10;52.90;;;;;;4977350;28;20240;-78
2022/06/18 07:56:03;;;;;;;1.30;0.95;;;35.80;50.20;;;;;;4995080;28;20640;-79
2022/06/18 07:58:29;;;;;;;2.03;0.90;;;36.20;51.90;;;;;;4977383;28;20291;-79
2022/06/18 08:00:56;;;;;;;2.15;1.10;;;35.80;51.60;;;;;;4977669;28;20676;-80
2022/06/18 08:03:22;;;;;;;1.23;0.90;;;35.20;51.30;;;;;;4994961;28;20173;-79
2022/06/18 08:05:47;;;;;;;3.97;1.10;;;35.50;53.30;;;;;;4995307;28;20180;-79
2022/06/18 08:08:14;;;;;;;2.70;1.10;;;35.00;50.80;;;;;;4976639;28;20641;-78
2022/06/18 08:10:41;;;;;;;1.55;0.90;;;34.10;51.70;;;;;;4994755;28;20193;-79
2022/06/18 08:13:08;;;;;;;2.30;0.82;;;34.90;53.70;;;;;;4994222;28;20169;-79
2022/06/18 08:15:34;;;;;;;2.33;0.90;;;35.30;52.60;;;;;;4994410;28;20671;-79
2022/06/18 08:18:00;;;;;;;1.75;0.90;;;35.50;51.60;;;;;;4995375;28;20208;-79
2022/06/18 08:20:26;;;;;;;2.08;0.88;;;35.60;50.70;;;;;;4995800;28;20173;-80
2022/06/18 08:22:55;;;;;;;3.75;1.10;;;35.40;52.00;;;;;;4976925;28;20177;-79
2022/06/18 08:25:23;;;;;;;1.60;0.90;;;35.00;53.50;;;;;;4977315;28;20188;-79
2022/06/18 08:27:49;;;;;;;1.23;0.90;;;35.00;51.70;;;;;;4993982;28;20553;-79
2022/06/18 08:30:16;;;;;;;1.10;0.90;;;35.70;51.20;;;;;;4976700;28;20268;-79
2022/06/18 08:32:42;;;;;;;1.88;0.90;;;35.20;49.90;;;;;;4994051;28;20268;-79
2022/06/18 08:35:08;;;;;;;1.30;0.90;;;34.80;51.20;;;;;;4993884;28;20219;-79
2022/06/18 08:37:33;;;;;;;1.98;0.85;;;34.10;53.00;;;;;;4993063;28;20181;-78
2022/06/18 08:40:00;;;;;;;1.30;0.95;;;34.50;53.70;;;;;;4993682;28;20255;-79
2022/06/18 08:42:45;;;;;;;3.80;0.93;;;34.60;51.20;;;;;;4975773;28;20209;-78
2022/06/18 08:45:29;;;;;;;2.45;1.25;;;34.90;54.20;;;;;;4975828;28;20168;-76
2022/06/18 08:48:20;;;;;;;2.10;1.23;;;35.20;54.20;;;;;;4975156;28;20173;-78
2022/06/18 08:50:57;;;;;;;5.22;1.10;;;35.50;51.70;;;;;;4993223;28;20562;-78
2022/06/18 08:53:53;;;;;;;4.85;1.00;;;35.20;52.90;;;;;;4993467;28;20177;-77
2022/06/18 08:56:32;;;;;;;3.22;1.08;;;35.50;50.60;;;;;;4993253;28;20540;-76
2022/06/18 08:59:27;;;;;;;2.65;0.90;;;35.50;52.70;;;;;;4993126;28;20205;-78
2022/06/18 09:02:22;;;;;;;10.35;1.20;;;36.00;53.70;;;;;;4994108;28;20276;-78
2022/06/18 09:04:53;;;;;;;6.03;1.80;;;35.80;51.90;;;;;;4995748;28;20167;-79
2022/06/18 09:07:58;;;;;;;1.73;0.90;;;35.80;51.50;;;;;;4994910;28;20181;-81
2022/06/18 09:10:31;;;;;;;3.17;1.15;;;36.00;53.50;;;;;;4974506;28;20166;-81
2022/06/18 09:13:02;;;;;;;5.53;1.27;;;35.60;51.70;;;;;;4974420;28;20166;-80
2022/06/18 09:15:34;;;;;;;7.20;1.05;;;35.10;54.30;;;;;;4974589;28;20177;-80
2022/06/18 09:18:05;;;;;;;2.72;1.27;;;35.30;55.20;;;;;;4956014;28;20174;-80
2022/06/18 09:20:44;;;;;;;3.38;1.08;;;35.30;54.40;;;;;;4974884;28;20209;-81
2022/06/18 09:23:24;;;;;;;3.65;1.10;;;35.10;54.30;;;;;;4974485;28;20212;-81
2022/06/18 09:25:52;;;;;;;7.25;1.20;;;35.20;55.10;;;;;;4978319;28;20592;-81
2022/06/18 09:28:33;;;;;;;6.10;1.20;;;35.30;53.80;;;;;;4972619;28;20181;-81
2022/06/18 09:31:20;;;;;;;4.97;1.20;;;34.80;54.30;;;;;;4977789;28;20211;-81
2022/06/18 09:33:53;;;;;;;3.50;1.10;;;34.30;54.90;;;;;;4976634;28;20169;-81
2022/06/18 09:36:26;;;;;;;5.40;1.63;;;34.30;55.10;;;;;;4987602;28;20180;-78
2022/06/18 09:39:17;;;;;;;9.10;1.30;;;35.30;56.00;;;;;;4992177;28;20236;-78
2022/06/18 09:41:53;;;;;;;3.58;1.10;;;35.10;54.40;;;;;;4964967;28;20738;-77
2022/06/18 09:44:33;;;;;;;2.42;1.38;;;34.80;55.70;;;;;;4992804;28;20157;-78
2022/06/18 09:47:14;;;;;;;9.00;1.50;;;35.30;55.80;;;;;;4992855;28;20153;-77
2022/06/18 09:49:45;;;;;;;1.98;1.23;;;35.40;54.70;;;;;;4992048;28;20181;-77
2022/06/18 09:52:31;;;;;;;4.13;1.30;;;35.70;53.60;;;;;;4992555;28;20215;-79
2022/06/18 09:55:02;;;;;;;4.35;1.30;;;35.60;55.20;;;;;;4992251;28;20169;-78
2022/06/18 09:57:33;;;;;;;28.95;2.03;;;35.70;55.80;;;;;;4974729;28;20184;-77
2022/06/18 09:59:58;;;;;;;1.67;1.13;;;36.10;52.50;;;;;;4975506;28;20192;-77
2022/06/18 10:02:30;;;;;;;4.57;1.30;;;35.90;55.30;;;;;;4992716;28;20207;-78
2022/06/18 10:07:45;;;;;;;14.93;1.25;;;35.30;50.90;;;;;;4992440;28;20280;-77
2022/06/18 10:10:17;;;;;;;9.68;1.25;;;34.80;55.60;;;;;;4994461;28;20189;-78
2022/06/18 10:12:58;;;;;;;3.53;1.50;;;35.20;53.30;;;;;;4976065;28;20184;-78
2022/06/18 10:15:25;;;;;;;2.10;1.25;;;35.10;54.00;;;;;;4992899;28;20173;-77
2022/06/18 10:18:09;;;;;;;9.15;1.52;;;35.20;55.10;;;;;;4992290;28;20791;-77
2022/06/18 10:20:58;;;;;;;7.30;1.52;;;35.30;53.80;;;;;;4992927;28;20255;-76
2022/06/18 10:23:45;;;;;;;10.98;1.40;;;35.10;54.10;;;;;;4992750;28;20180;-76
2022/06/18 10:26:26;;;;;;;4.95;1.45;;;35.80;56.50;;;;;;4992502;28;20169;-76
2022/06/18 10:28:59;;;;;;;10.65;1.75;;;36.30;54.70;;;;;;4991859;28;20260;-77
2022/06/18 10:32:12;;;;;;;2.78;1.30;;;35.40;49.20;;;;;;4974732;28;20271;-77
2022/06/18 10:34:43;;;;;;;4.70;2.05;;;34.80;53.10;;;;;;4913053;29;20215;-77
2022/06/18 10:37:20;;;;;;;11.25;1.70;;;34.40;52.70;;;;;;4913198;29;20254;-77
2022/06/18 10:39:59;;;;;;;9.60;1.40;;;34.40;52.70;;;;;;4946477;28;20208;-77
2022/06/18 10:42:56;;;;;;;10.65;1.63;;;34.60;53.30;;;;;;4992391;28;20193;-78
2022/06/18 10:45:48;;;;;;;11.20;1.90;;;34.80;55.10;;;;;;4975075;28;20169;-76
2022/06/18 10:48:18;;;;;;;4.80;1.83;;;35.00;53.40;;;;;;4974275;28;20165;-77
2022/06/18 10:50:46;;;;;;;11.57;1.83;;;35.20;53.70;;;;;;4992083;28;20216;-78
2022/06/18 10:53:14;;;;;;;8.23;1.60;;;35.60;53.70;;;;;;4992257;28;20173;-78
2022/06/18 10:55:40;;;;;;;5.57;1.58;;;35.40;51.20;;;;;;4992039;28;20177;-78
2022/06/18 10:58:15;;;;;;;5.85;1.77;;;35.40;53.40;;;;;;4991582;28;20537;-78
2022/06/18 11:00:52;;;;;;;6.65;1.98;;;35.80;53.60;;;;;;4992059;28;20268;-78
2022/06/18 11:03:21;;;;;;;8.70;1.52;;;36.30;50.50;;;;;;4992190;28;20169;-79
2022/06/18 11:05:48;;;;;;;7.18;1.92;;;36.10;51.30;;;;;;4994303;28;20220;-79
2022/06/18 11:08:20;;;;;;;8.48;2.15;;;35.40;53.30;;;;;;4996771;28;20619;-80
2022/06/18 11:10:51;;;;;;;6.50;2.20;;;35.20;52.80;;;;;;4993450;28;20212;-77
2022/06/18 11:13:21;;;;;;;6.25;2.00;;;35.40;53.50;;;;;;4981011;28;20527;-79
2022/06/18 11:15:47;;;;;;;5.03;1.70;;;35.20;52.00;;;;;;4999270;28;20534;-79
2022/06/18 11:18:19;;;;;;;11.85;2.22;;;35.10;52.40;;;;;;4998057;28;20173;-79
2022/06/18 11:21:00;;;;;;;6.78;1.95;;;35.20;52.90;;;;;;4999269;28;20657;-80
2022/06/18 11:23:27;;;;;;;4.95;1.65;;;35.20;53.00;;;;;;4980144;28;20180;-79
2022/06/18 11:25:57;;;;;;;5.57;1.70;;;35.60;54.20;;;;;;4997410;28;20204;-79
2022/06/18 11:28:33;;;;;;;10.05;2.03;;;36.10;53.60;;;;;;4995577;28;20170;-79
2022/06/18 11:31:02;;;;;;;5.85;1.55;;;35.90;52.50;;;;;;4995606;28;20197;-79
2022/06/18 11:33:34;;;;;;;5.88;1.85;;;35.60;54.10;;;;;;4995857;28;20184;-79
2022/06/18 11:36:17;;;;;;;11.77;2.63;;;35.60;52.40;;;;;;4980221;28;20232;-79
2022/06/18 11:38:55;;;;;;;12.05;1.90;;;35.60;53.40;;;;;;4996985;28;20197;-79
2022/06/18 11:41:31;;;;;;;15.50;1.85;;;35.40;51.80;;;;;;4980360;28;20196;-79
2022/06/18 11:44:05;;;;;;;6.80;1.90;;;35.20;51.20;;;;;;4998137;28;20746;-80
2022/06/18 11:46:37;;;;;;;9.23;2.92;;;35.40;53.60;;;;;;4997898;28;20707;-79
2022/06/18 11:49:28;;;;;;;7.70;2.30;;;35.50;53.20;;;;;;4999649;28;20185;-80
2022/06/18 11:52:12;;;;;;;5.28;1.88;;;36.00;53.70;;;;;;4982235;28;20204;-80
2022/06/18 11:54:57;;;;;;;8.05;2.10;;;36.30;53.20;;;;;;4978852;28;20177;-80
2022/06/18 11:57:44;;;;;;;16.45;3.28;;;36.50;52.40;;;;;;4977939;28;20181;-77
2022/06/18 12:00:22;;;;;;;7.28;1.95;;;36.20;51.60;;;;;;4981043;28;20234;-80
2022/06/18 12:03:12;;;;;;;7.20;2.45;;;36.00;54.10;;;;;;4996441;28;20177;-80
2022/06/18 12:05:46;;;;;;;8.07;2.30;;;35.80;50.40;;;;;;4976841;28;20170;-80
2022/06/18 12:08:17;;;;;;;11.68;2.00;;;35.50;52.50;;;;;;4959842;28;20178;-80
2022/06/18 12:11:00;;;;;;;8.70;2.17;;;35.10;53.50;;;;;;4978037;28;20197;-80
2022/06/18 12:13:36;;;;;;;5.75;1.70;;;35.20;54.40;;;;;;4978259;28;20269;-79
2022/06/18 12:16:14;;;;;;;12.48;2.30;;;35.20;52.70;;;;;;4996315;28;20251;-80
2022/06/18 12:18:54;;;;;;;12.30;2.97;;;35.50;52.60;;;;;;4995791;28;20864;-79
2022/06/18 12:21:22;;;;;;;10.68;2.30;;;35.00;52.80;;;;;;4995743;28;20268;-79
2022/06/18 12:24:01;;;;;;;9.32;2.60;;;34.80;54.80;;;;;;4996683;28;20175;-80
2022/06/18 12:26:40;;;;;;;7.57;1.90;;;35.00;54.00;;;;;;4997455;28;20212;-80
2022/06/18 12:29:38;;;;;;;10.52;2.50;;;35.00;55.60;;;;;;4993686;28;20581;-79
2022/06/18 12:32:32;;;;;;;10.18;3.08;;;35.40;55.50;;;;;;4951298;28;20684;-78
2022/06/18 12:35:22;;;;;;;10.50;2.35;;;35.40;53.50;;;;;;4994265;28;20162;-79
2022/06/18 12:38:09;;;;;;;9.05;2.47;;;34.90;52.70;;;;;;4994324;28;20173;-79
2022/06/18 12:40:51;;;;;;;11.38;2.78;;;35.10;54.00;;;;;;4994895;28;20197;-80
2022/06/18 12:43:37;;;;;;;16.33;2.83;;;34.80;54.20;;;;;;4995946;28;20169;-80
2022/06/18 12:46:28;;;;;;;12.23;2.80;;;35.00;53.60;;;;;;4994496;28;20187;-79
2022/06/18 12:49:10;;;;;;;12.00;3.15;;;34.80;53.20;;;;;;4995159;28;20177;-78
2022/06/18 12:52:01;;;;;;;11.82;2.72;;;34.80;53.70;;;;;;4994248;28;20231;-79
2022/06/18 12:54:42;;;;;;;18.48;3.00;;;35.30;54.50;;;;;;4976522;28;20192;-81
2022/06/18 12:57:22;;;;;;;22.95;3.30;;;35.50;53.90;;;;;;4990660;28;20216;-78
2022/06/18 13:00:11;;;;;;;13.35;2.25;;;35.50;52.90;;;;;;4993093;28;20672;-79
2022/06/18 13:03:11;;;;;;;14.15;2.70;;;35.60;51.80;;;;;;4958597;28;20347;-76
2022/06/18 13:05:46;;;;;;;15.05;3.20;;;36.20;53.10;;;;;;4993257;28;20207;-76
2022/06/18 13:08:39;;;;;;;11.75;2.60;;;36.30;53.20;;;;;;4992763;28;20656;-78
2022/06/18 13:11:46;;;;;;;20.23;3.22;;;36.20;51.90;;;;;;4993340;28;20193;-78
2022/06/18 13:14:45;;;;;;;14.75;3.45;;;36.50;53.10;;;;;;4974206;28;20196;-78
2022/06/18 13:17:19;;;;;;;19.90;4.25;;;36.00;50.50;;;;;;4973418;28;20170;-77
2022/06/18 13:19:56;;;;;;;15.45;3.55;;;35.60;52.80;;;;;;4988333;28;20220;-76
2022/06/18 13:22:23;;;;;;;18.98;3.83;;;35.80;52.20;;;;;;4993113;28;20200;-77
2022/06/18 13:30:32;;;;;;;20.35;3.58;;;35.60;51.80;;;;;;4993091;28;20169;-77
2022/06/18 13:33:05;;;;;;;12.65;3.90;;;35.50;54.40;;;;;;4993057;28;20180;-78
2022/06/18 13:35:46;;;;;;;20.38;3.85;;;35.80;54.20;;;;;;4993043;28;20545;-78
2022/06/18 13:38:29;;;;;;;19.55;4.13;;;35.90;51.60;;;;;;4992647;28;20657;-79
2022/06/18 13:41:33;;;;;;;21.52;4.13;;;35.80;51.30;;;;;;4992923;28;20555;-79
2022/06/18 13:44:42;;;;;;;20.77;3.40;;;36.10;53.40;;;;;;4973856;28;20213;-80
2022/06/18 13:47:23;;;;;;;24.75;3.90;;;36.20;51.30;;;;;;4979107;28;20169;-78
2022/06/18 13:50:12;;;;;;;21.88;4.68;;;35.60;52.50;;;;;;4992485;28;20161;-77
2022/06/18 13:52:45;;;;;;;16.75;3.35;;;35.70;52.30;;;;;;4992648;28;20688;-76
2022/06/18 13:55:15;;;;;;;27.42;4.10;;;36.00;51.90;;;;;;4992689;28;20189;-79
2022/06/18 13:57:47;;;;;;;22.70;4.13;;;35.90;52.80;;;;;;4991954;28;20185;-76
2022/06/18 14:00:22;;;;;;;19.83;3.35;;;35.80;51.80;;;;;;4992464;28;20657;-79
2022/06/18 14:03:05;;;;;;;17.90;3.65;;;35.70;53.60;;;;;;4992631;28;20254;-80
2022/06/18 14:05:44;;;;;;;14.85;3.40;;;36.20;51.50;;;;;;4992613;28;20192;-78
2022/06/18 14:08:47;;;;;;;20.85;3.60;;;36.20;52.50;;;;;;4991718;28;20215;-78
2022/06/18 14:11:44;;;;;;;22.27;3.92;;;36.60;52.90;;;;;;4974747;28;20227;-76
2022/06/18 14:14:12;;;;;;;22.50;4.20;;;36.60;52.50;;;;;;4955712;28;20255;-78
2022/06/18 14:16:55;;;;;;;21.38;3.80;;;35.90;51.70;;;;;;4973420;28;20309;-80
2022/06/18 14:19:20;;;;;;;25.60;4.25;;;35.90;52.30;;;;;;4955132;28;20236;-78
2022/06/18 14:21:48;;;;;;;22.38;3.55;;;35.70;54.70;;;;;;4973052;28;20198;-80
2022/06/18 14:24:15;;;;;;;19.73;3.95;;;35.80;53.30;;;;;;4974231;28;20174;-81
2022/06/18 14:26:50;;;;;;;10.38;3.70;;;35.80;52.50;;;;;;4993207;28;20153;-79
2022/06/18 14:29:17;;;;;;;20.77;4.97;;;35.40;53.20;;;;;;4993698;28;20161;-79
2022/06/18 14:32:30;;;;;;;19.33;4.10;;;35.60;53.70;;;;;;4974861;28;20208;-78
2022/06/18 14:35:03;;;;;;;22.80;5.13;;;35.80;53.70;;;;;;4962799;28;20193;-80
2022/06/18 14:37:31;;;;;;;18.35;4.05;;;35.50;52.90;;;;;;4989498;28;20158;-78
2022/06/18 14:40:00;;;;;;;21.92;4.90;;;35.20;54.20;;;;;;4976170;28;20213;-80
2022/06/18 14:42:47;;;;;;;23.63;4.18;;;35.40;54.90;;;;;;4995855;28;20185;-78
2022/06/18 14:45:40;;;;;;;15.45;3.40;;;35.70;55.30;;;;;;4996212;28;20197;-78
2022/06/18 14:48:35;;;;;;;14.85;4.13;;;35.20;52.90;;;;;;4995655;28;20158;-78
2022/06/18 14:51:30;;;;;;;14.38;2.95;;;34.70;56.40;;;;;;4978245;28;20246;-78
2022/06/18 14:54:40;;;;;;;26.55;4.05;;;34.40;56.70;;;;;;4995925;28;20161;-78
2022/06/18 14:57:31;;;;;;;22.83;3.92;;;34.70;58.90;;;;;;4916620;29;20180;-78
2022/06/18 14:59:59;;;;;;;21.77;4.10;;;35.00;55.60;;;;;;4977987;28;20299;-78
2022/06/18 15:02:44;;;;;;;23.83;4.47;;;35.10;54.60;;;;;;4995811;28;20244;-78
2022/06/18 15:05:23;;;;;;;33.35;3.63;;;34.90;55.90;;;;;;4995765;28;20649;-78
2022/06/18 15:07:49;;;;;;;20.90;3.40;;;34.60;53.10;;;;;;4977936;28;20169;-78
2022/06/18 15:10:19;;;;;;;16.35;3.63;;;34.30;55.40;;;;;;4995860;28;20179;-78
2022/06/18 15:12:49;;;;;;;25.13;3.78;;;34.00;55.30;;;;;;4996276;28;20175;-78
2022/06/18 15:15:34;;;;;;;14.45;3.50;;;33.80;56.80;;;;;;4996243;28;20169;-78
2022/06/18 15:18:19;;;;;;;24.50;4.90;;;33.80;56.70;;;;;;4995509;28;20177;-78
2022/06/18 15:20:53;;;;;;;21.92;4.28;;;34.10;57.20;;;;;;4995621;28;20207;-79
2022/06/18 15:23:57;;;;;;;18.35;3.67;;;34.40;56.30;;;;;;4996310;28;20149;-79
2022/06/18 15:26:18;;;;;;;17.42;4.00;;;34.60;56.30;;;;;;4995552;28;20223;-81
2022/06/18 15:28:46;;;;;;;32.03;5.32;;;34.70;54.60;;;;;;4995750;28;20252;-79
2022/06/18 15:31:31;;;;;;;28.25;4.75;;;34.40;57.00;;;;;;4996036;28;20926;-79
2022/06/18 15:33:57;;;;;;;16.98;3.90;;;34.30;55.30;;;;;;4976132;28;20642;-79
2022/06/18 15:36:26;;;;;;;23.33;3.75;;;34.40;56.20;;;;;;4975922;28;20174;-81
2022/06/18 15:39:15;;;;;;;18.88;3.65;;;34.30;58.20;;;;;;4976714;28;20528;-78
2022/06/18 15:41:45;;;;;;;21.67;3.97;;;34.00;56.40;;;;;;4976593;28;20193;-80
2022/06/18 15:44:27;;;;;;;25.20;4.43;;;33.80;57.50;;;;;;4976915;28;20181;-80
2022/06/18 15:47:01;;;;;;;35.20;5.90;;;33.60;57.20;;;;;;4959643;28;20177;-78
2022/06/18 15:49:33;;;;;;;25.87;4.30;;;33.20;58.60;;;;;;4959049;28;20428;-81
2022/06/18 15:52:00;;;;;;;26.70;3.87;;;32.90;57.00;;;;;;4975031;28;20632;-77
2022/06/18 15:54:38;;;;;;;30.90;4.67;;;32.80;58.90;;;;;;4976135;28;20420;-78
2022/06/18 15:57:12;;;;;;;25.40;4.47;;;32.70;60.00;;;;;;4976027;28;20408;-78
2022/06/18 15:59:38;;;;;;;17.17;4.10;;;32.80;59.60;;;;;;4942590;28;20484;-78
2022/06/18 16:02:04;;;;;;;20.50;3.70;;;32.80;59.20;;;;;;4975840;28;20457;-77
2022/06/18 16:04:31;;;;;;;15.50;3.97;;;32.70;58.50;;;;;;4976173;28;20174;-79
2022/06/18 16:06:57;;;;;;;19.43;4.37;;;32.50;61.10;;;;;;4976561;28;20708;-79
2022/06/18 16:09:42;;;;;;;36.03;4.83;;;32.50;61.20;;;;;;4975844;28;20417;-79
2022/06/18 16:12:23;;;;;;;38.73;4.77;;;32.70;62.20;;;;;;4958434;28;20445;-78
2022/06/18 16:14:48;;;;;;;27.73;4.10;;;32.70;60.90;;;;;;4990288;28;20503;-78
2022/06/18 16:17:21;;;;;;;23.47;4.20;;;33.00;61.50;;;;;;4995084;28;20574;-80
2022/06/18 16:19:51;;;;;;;16.53;4.13;;;32.90;58.80;;;;;;4994885;28;20541;-77
2022/06/18 16:22:26;;;;;;;19.00;3.67;;;32.70;59.30;;;;;;4977496;28;20435;-78
2022/06/18 16:24:52;;;;;;;24.13;3.70;;;32.40;60.30;;;;;;4994483;28;20439;-77
2022/06/18 16:27:34;;;;;;;18.40;3.97;;;32.20;60.30;;;;;;4994510;28;20412;-77
2022/06/18 16:30:40;;;;;;;17.00;3.60;;;32.10;61.70;;;;;;4995151;28;20632;-77
2022/06/18 16:33:13;;;;;;;27.80;4.03;;;32.00;62.00;;;;;;4993967;28;20424;-77
2022/06/18 16:35:59;;;;;;;23.40;4.87;;;31.90;61.10;;;;;;4994470;28;20423;-79
2022/06/18 16:38:32;;;;;;;30.23;4.83;;;32.00;63.40;;;;;;4976367;28;20466;-78
2022/06/18 16:41:10;;;;;;;16.73;3.73;;;32.00;67.80;;;;;;4994497;28;20443;-76
2022/06/18 16:43:36;;;;;;;20.70;3.57;;;32.00;62.20;;;;;;4994637;28;20403;-77
2022/06/18 16:46:03;;;;;;;30.73;4.33;;;31.90;62.70;;;;;;4977081;28;20424;-77
2022/06/18 16:48:37;;;;;;;20.27;4.33;;;31.90;64.30;;;;;;4993639;28;20448;-76
2022/06/18 16:51:03;;;;;;;23.03;3.90;;;31.80;66.00;;;;;;4993815;28;20931;-79
2022/06/18 16:53:36;;;;;;;29.90;5.17;;;31.80;62.30;;;;;;4994315;28;20446;-78
2022/06/18 16:56:03;;;;;;;24.57;4.50;;;31.80;66.70;;;;;;4994992;28;20548;-79
2022/06/18 16:58:29;;;;;;;24.47;3.77;;;32.00;63.40;;;;;;4993188;28;20507;-78
2022/06/18 17:00:54;;;;;;;19.87;4.40;;;32.10;65.30;;;;;;4993336;28;20496;-78
2022/06/18 17:03:21;;;;;;;19.53;4.27;;;31.90;65.20;;;;;;4996333;28;20180;-80
2022/06/18 17:05:48;;;;;;;15.63;3.33;;;31.80;66.30;;;;;;4983332;28;20178;-80
2022/06/18 17:08:16;;;;;;;14.10;3.53;;;31.80;66.50;;;;;;4981115;28;20435;-80
2022/06/18 17:10:48;;;;;;;18.33;3.77;;;31.70;65.60;;;;;;4998423;28;20462;-80
2022/06/18 17:13:16;;;;;;;23.37;3.83;;;31.60;66.40;;;;;;4996047;28;20400;-79
2022/06/18 17:15:43;;;;;;;15.77;4.37;;;31.40;66.50;;;;;;4994197;28;20511;-79
2022/06/18 17:18:08;;;;;;;14.03;3.83;;;31.30;71.90;;;;;;4977412;28;20495;-78
2022/06/18 17:20:34;;;;;;;33.10;5.10;;;31.20;66.90;;;;;;4997456;28;20487;-80
2022/06/18 17:23:00;;;;;;;13.43;3.87;;;31.10;69.20;;;;;;4980317;28;20644;-79
2022/06/18 17:31:09;;;;;;;21.53;3.13;;;31.20;72.90;;;;;;5001137;28;20564;-82
2022/06/18 17:33:36;;;;;;;15.67;3.70;;;31.10;72.60;;;;;;5001010;28;20389;-80
2022/06/18 17:36:04;;;;;;;20.07;4.27;;;30.90;74.50;;;;;;4980784;28;20420;-81
2022/06/18 17:38:31;;;;;;;21.50;4.00;;;30.90;75.80;;;;;;4981798;28;20424;-81
2022/06/18 17:41:04;;;;;;;15.10;3.70;;;30.70;76.10;;;;;;4983469;28;21002;-80
2022/06/18 17:43:32;;;;;;;19.20;3.47;;;30.50;75.90;;;;;;5002583;28;20484;-81
2022/06/18 17:45:57;;;;;;;23.07;4.73;;;30.30;74.20;;;;;;4984636;28;20483;-81
2022/06/18 17:48:23;;;;;;;21.53;4.70;;;30.20;74.90;;;;;;5002010;28;20763;-81
2022/06/18 17:50:50;;;;;;;21.03;3.50;;;30.10;73.30;;;;;;5004795;28;20217;-79
2022/06/18 17:53:15;;;;;;;30.63;3.30;;;30.00;75.50;;;;;;5003536;28;20180;-80
2022/06/18 17:55:41;;;;;;;25.40;3.80;;;29.80;73.90;;;;;;4993785;28;20502;-78
2022/06/18 17:58:07;;;;;;;12.97;3.53;;;29.70;75.80;;;;;;4992139;28;20191;-77
2022/06/18 18:00:34;;;;;;;20.43;4.60;;;29.60;75.80;;;;;;4992428;28;20212;-76
2022/06/18 18:03:00;;;;;;;21.83;4.90;;;29.40;78.40;;;;;;4975038;28;20187;-79
2022/06/18 18:05:26;;;;;;;22.70;4.50;;;29.20;77.50;;;;;;4992382;28;20824;-77
2022/06/18 18:07:52;;;;;;;14.43;3.97;;;29.00;76.60;;;;;;4991977;28;20658;-77
2022/06/18 18:10:17;;;;;;;20.67;4.37;;;28.80;77.90;;;;;;4992162;28;20908;-77
2022/06/18 18:12:43;;;;;;;24.87;5.30;;;28.60;78.70;;;;;;4992451;28;20548;-76
2022/06/18 18:15:13;;;;;;;25.03;6.70;;;28.40;78.20;;;;;;4994152;28;20188;-77
2022/06/18 18:17:48;;;;;;;19.50;4.33;;;28.30;78.60;;;;;;4996366;28;20208;-78
2022/06/18 18:20:14;;;;;;;21.57;4.90;;;28.10;78.50;;;;;;4998440;28;20451;-81
2022/06/18 18:22:40;;;;;;;17.97;6.90;;;27.90;78.80;;;;;;4999702;28;20443;-80
2022/06/18 18:25:06;;;;;;;43.30;8.97;;;27.80;78.80;;;;;;5003022;28;20166;-80
2022/06/18 18:27:32;;;;;;;29.73;8.27;;;27.70;78.40;;;;;;4982038;28;20417;-80
2022/06/18 18:29:58;;;;;;;23.23;6.60;;;27.50;79.70;;;;;;4999285;28;20185;-82
2022/06/18 18:32:24;;;;;;;14.73;5.03;;;27.40;81.30;;;;;;5000850;28;20208;-81
2022/06/18 18:34:50;;;;;;;18.13;4.50;;;27.20;82.40;;;;;;4982603;28;20177;-79
2022/06/18 18:37:16;;;;;;;20.33;6.07;;;26.90;85.60;;;;;;4998877;28;20829;-80
2022/06/18 18:39:42;;;;;;;13.73;4.37;;;26.70;83.70;;;;;;4999108;28;20215;-80
2022/06/18 18:42:11;;;;;;;21.60;5.50;;;26.50;85.80;;;;;;4999616;28;20428;-80
2022/06/18 18:44:37;;;;;;;22.07;3.60;;;26.30;85.20;;;;;;4982396;28;20192;-81
2022/06/18 18:47:04;;;;;;;27.13;3.47;;;26.10;85.20;;;;;;4981227;28;20428;-79
2022/06/18 18:49:29;;;;;;;14.00;3.13;;;25.90;85.80;;;;;;4981138;28;20227;-81
2022/06/18 18:51:55;;;;;;;18.67;3.80;;;25.70;84.10;;;;;;4999069;28;20912;-80
2022/06/18 18:54:20;;;;;;;19.13;3.53;;;25.50;84.50;;;;;;4996850;28;20184;-79
2022/06/18 18:56:46;;;;;;;15.77;3.33;;;25.30;85.40;;;;;;4997163;28;20212;-79
2022/06/18 18:59:12;;;;;;;20.87;3.50;;;25.10;87.40;;;;;;4997285;28;20938;-80
2022/06/18 19:01:37;;;;;;;15.93;3.30;;;24.90;87.30;;;;;;4997162;28;20192;-79
2022/06/18 19:04:04;;;;;;;20.93;4.10;;;24.70;88.10;;;;;;4979288;28;20201;-79
2022/06/18 19:06:29;;;;;;;22.13;3.73;;;24.50;89.00;;;;;;4994866;28;20197;-79
2022/06/18 19:08:55;;;;;;;11.97;3.60;;;24.30;88.90;;;;;;5000320;28;20923;-79
2022/06/18 19:11:21;;;;;;;18.87;3.50;;;24.20;88.90;;;;;;4997424;28;20225;-78
2022/06/18 19:13:47;;;;;;;22.67;5.47;;;24.10;88.50;;;;;;4997858;28;20290;-79
2022/06/18 19:16:13;;;;;;;17.40;4.13;;;24.10;87.80;;;;;;4999388;28;20188;-79
2022/06/18 19:18:41;;;;;;;19.30;3.70;;;24.10;87.20;;;;;;4997509;28;20478;-80
2022/06/18 19:21:15;;;;;;;15.43;4.10;;;24.00;88.60;;;;;;4997603;28;20188;-79
2022/06/18 19:23:40;;;;;;;33.77;11.80;;;23.80;90.10;;;;;;4997762;28;20902;-80
2022/06/18 19:26:08;;;;;;;64.20;35.63;;;23.60;90.70;;;;;;4996801;28;20444;-79
2022/06/18 19:28:39;;;;;;;54.33;31.57;;;23.50;90.90;;;;;;4995063;28;20177;-79
2022/06/18 19:31:07;;;;;;;36.50;15.83;;;23.40;90.40;;;;;;4996894;28;20428;-80
2022/06/18 19:33:34;;;;;;;18.40;9.17;;;23.30;89.80;;;;;;4996839;28;20417;-80
2022/06/18 19:36:00;;;;;;;24.33;8.30;;;23.20;89.00;;;;;;4996227;28;20528;-79
2022/06/18 19:38:27;;;;;;;19.13;6.97;;;23.20;88.20;;;;;;4995219;28;20927;-79
2022/06/18 19:40:53;;;;;;;33.77;14.80;;;23.30;87.60;;;;;;4979958;28;20194;-79
2022/06/18 19:43:21;;;;;;;32.30;15.50;;;23.30;87.80;;;;;;4997004;28;20428;-79
2022/06/18 19:45:47;;;;;;;21.10;6.33;;;23.20;87.80;;;;;;4995798;28;20633;-79
2022/06/18 19:48:13;;;;;;;17.43;4.60;;;23.20;87.20;;;;;;4978158;28;20968;-79
2022/06/18 19:50:41;;;;;;;13.73;3.67;;;23.30;87.10;;;;;;4991087;28;20468;-80
2022/06/18 19:53:09;;;;;;;25.03;4.47;;;23.30;87.00;;;;;;4976931;28;20425;-80
2022/06/18 19:55:35;;;;;;;13.37;3.50;;;23.30;87.40;;;;;;4978229;28;21143;-79
2022/06/18 19:58:03;;;;;;;12.80;3.43;;;23.30;88.20;;;;;;4991181;28;20413;-80
2022/06/18 20:00:32;;;;;;;15.57;4.50;;;23.00;91.30;;;;;;4995307;28;20203;-79